sensor_id;sensor_type;location;lat;lon;timestamp;pressure;altitude;pressure_sealevel;temperature;humidity
64683;BME280;51107;47.652;19.016;2022-07-18T00:00:26;100749.66;;;17.13;43.77
64683;BME280;51107;47.652;19.016;2022-07-18T00:03:16;100750.44;;;17.22;43.40
64683;BME280;51107;47.652;19.016;2022-07-18T00:06:12;100752.28;;;17.21;42.08
64683;BME280;51107;47.652;19.016;2022-07-18T00:09:04;100741.41;;;17.16;42.34
64683;BME280;51107;47.652;19.016;2022-07-18T00:11:52;100738.28;;;17.21;41.86
64683;BME280;51107;47.652;19.016;2022-07-18T00:14:51;100754.16;;;16.79;43.58
64683;BME280;51107;47.652;19.016;2022-07-18T00:17:49;100747.44;;;16.77;43.66
64683;BME280;51107;47.652;19.016;2022-07-18T00:20:58;100757.16;;;16.76;42.61
64683;BME280;51107;47.652;19.016;2022-07-18T00:23:28;100751.69;;;16.86;41.94
64683;BME280;51107;47.652;19.016;2022-07-18T00:26:19;100756.13;;;16.86;42.10
64683;BME280;51107;47.652;19.016;2022-07-18T00:29:07;100765.84;;;16.77;44.07
64683;BME280;51107;47.652;19.016;2022-07-18T00:31:57;100755.31;;;16.85;42.19
64683;BME280;51107;47.652;19.016;2022-07-18T00:34:50;100761.22;;;16.87;42.80
64683;BME280;51107;47.652;19.016;2022-07-18T00:37:59;100765.66;;;16.87;43.39
64683;BME280;51107;47.652;19.016;2022-07-18T00:40:51;100758.59;;;16.95;41.79
64683;BME280;51107;47.652;19.016;2022-07-18T00:43:58;100762.22;;;17.03;41.25
64683;BME280;51107;47.652;19.016;2022-07-18T00:46:51;100757.25;;;17.08;41.57
64683;BME280;51107;47.652;19.016;2022-07-18T00:49:58;100756.44;;;16.99;41.61
64683;BME280;51107;47.652;19.016;2022-07-18T00:52:47;100762.37;;;17.09;40.92
64683;BME280;51107;47.652;19.016;2022-07-18T00:55:43;100760.88;;;17.15;41.27
64683;BME280;51107;47.652;19.016;2022-07-18T00:58:51;100768.13;;;17.05;42.20
64683;BME280;51107;47.652;19.016;2022-07-18T01:01:41;100775.00;;;17.14;41.09
64683;BME280;51107;47.652;19.016;2022-07-18T01:04:37;100775.66;;;17.08;42.33
64683;BME280;51107;47.652;19.016;2022-07-18T01:07:26;100773.41;;;16.96;42.38
64683;BME280;51107;47.652;19.016;2022-07-18T01:10:15;100780.31;;;16.89;43.18
64683;BME280;51107;47.652;19.016;2022-07-18T01:13:05;100779.81;;;16.69;43.44
64683;BME280;51107;47.652;19.016;2022-07-18T01:16:15;100777.06;;;16.38;44.68
64683;BME280;51107;47.652;19.016;2022-07-18T01:19:27;100776.72;;;16.41;45.13
64683;BME280;51107;47.652;19.016;2022-07-18T01:22:18;100779.66;;;16.62;43.34
64683;BME280;51107;47.652;19.016;2022-07-18T01:25:28;100778.84;;;16.62;44.37
64683;BME280;51107;47.652;19.016;2022-07-18T01:28:16;100784.59;;;16.74;43.94
64683;BME280;51107;47.652;19.016;2022-07-18T01:31:14;100781.47;;;16.70;43.75
64683;BME280;51107;47.652;19.016;2022-07-18T01:34:23;100773.09;;;16.50;45.36
64683;BME280;51107;47.652;19.016;2022-07-18T01:37:14;100785.44;;;16.58;44.83
64683;BME280;51107;47.652;19.016;2022-07-18T01:40:09;100778.50;;;16.40;45.34
64683;BME280;51107;47.652;19.016;2022-07-18T01:43:07;100768.50;;;16.44;45.48
64683;BME280;51107;47.652;19.016;2022-07-18T01:45:56;100777.62;;;15.90;46.76
64683;BME280;51107;47.652;19.016;2022-07-18T01:48:47;100778.28;;;15.84;47.71
64683;BME280;51107;47.652;19.016;2022-07-18T01:51:37;100773.34;;;15.89;47.17
64683;BME280;51107;47.652;19.016;2022-07-18T01:54:28;100780.25;;;15.90;47.21
64683;BME280;51107;47.652;19.016;2022-07-18T01:57:17;100783.88;;;15.98;46.79
64683;BME280;51107;47.652;19.016;2022-07-18T02:00:09;100775.53;;;16.02;46.59
64683;BME280;51107;47.652;19.016;2022-07-18T02:03:38;100776.53;;;16.26;46.21
64683;BME280;51107;47.652;19.016;2022-07-18T02:06:08;100783.47;;;16.27;45.93
64683;BME280;51107;47.652;19.016;2022-07-18T02:09:13;100782.13;;;16.06;47.36
64683;BME280;51107;47.652;19.016;2022-07-18T02:12:04;100782.13;;;16.06;47.20
64683;BME280;51107;47.652;19.016;2022-07-18T02:14:53;100781.28;;;16.22;46.90
64683;BME280;51107;47.652;19.016;2022-07-18T02:18:05;100782.78;;;16.17;47.27
64683;BME280;51107;47.652;19.016;2022-07-18T02:20:55;100784.22;;;16.03;47.90
64683;BME280;51107;47.652;19.016;2022-07-18T02:23:45;100784.31;;;15.76;49.17
64683;BME280;51107;47.652;19.016;2022-07-18T02:26:36;100789.34;;;15.61;49.69
64683;BME280;51107;47.652;19.016;2022-07-18T02:29:27;100786.84;;;15.52;49.75
64683;BME280;51107;47.652;19.016;2022-07-18T02:32:16;100794.84;;;15.42;50.00
64683;BME280;51107;47.652;19.016;2022-07-18T02:34:49;100796.81;;;15.14;51.41
64683;BME280;51107;47.652;19.016;2022-07-18T02:37:18;100793.59;;;14.93;52.07
64683;BME280;51107;47.652;19.016;2022-07-18T02:40:09;100789.56;;;15.07;51.64
64683;BME280;51107;47.652;19.016;2022-07-18T02:42:40;100787.03;;;15.24;51.34
64683;BME280;51107;47.652;19.016;2022-07-18T02:46:05;100787.75;;;15.34;51.06
64683;BME280;51107;47.652;19.016;2022-07-18T02:48:55;100786.28;;;15.40;51.07
64683;BME280;51107;47.652;19.016;2022-07-18T02:51:44;100787.91;;;15.06;51.46
64683;BME280;51107;47.652;19.016;2022-07-18T02:54:34;100795.78;;;14.80;52.70
64683;BME280;51107;47.652;19.016;2022-07-18T02:57:24;100795.59;;;15.00;51.97
64683;BME280;51107;47.652;19.016;2022-07-18T03:00:17;100788.28;;;14.85;52.15
64683;BME280;51107;47.652;19.016;2022-07-18T03:03:07;100792.69;;;14.85;52.15
64683;BME280;51107;47.652;19.016;2022-07-18T03:06:15;100794.41;;;14.94;52.37
64683;BME280;51107;47.652;19.016;2022-07-18T03:09:07;100795.25;;;14.94;52.23
64683;BME280;51107;47.652;19.016;2022-07-18T03:11:57;100794.41;;;15.20;52.05
64683;BME280;51107;47.652;19.016;2022-07-18T03:15:06;100795.12;;;15.31;51.18
64683;BME280;51107;47.652;19.016;2022-07-18T03:17:56;100795.84;;;15.15;52.29
64683;BME280;51107;47.652;19.016;2022-07-18T03:20:24;100787.84;;;15.24;52.11
64683;BME280;51107;47.652;19.016;2022-07-18T03:23:12;100795.16;;;15.39;52.39
64683;BME280;51107;47.652;19.016;2022-07-18T03:26:02;100790.41;;;15.42;51.79
64683;BME280;51107;47.652;19.016;2022-07-18T03:28:50;100801.72;;;15.35;52.19
64683;BME280;51107;47.652;19.016;2022-07-18T03:32:00;100795.97;;;15.39;52.36
64683;BME280;51107;47.652;19.016;2022-07-18T03:34:49;100798.00;;;14.93;53.62
64683;BME280;51107;47.652;19.016;2022-07-18T03:37:42;100793.44;;;14.95;53.74
64683;BME280;51107;47.652;19.016;2022-07-18T03:40:15;100794.56;;;15.19;55.91
64683;BME280;51107;47.652;19.016;2022-07-18T03:43:06;100799.69;;;15.28;55.88
64683;BME280;51107;47.652;19.016;2022-07-18T03:45:55;100801.38;;;15.38;54.22
64683;BME280;51107;47.652;19.016;2022-07-18T03:48:24;100806.28;;;15.06;53.28
64683;BME280;51107;47.652;19.016;2022-07-18T03:50:54;100806.75;;;15.02;54.70
64683;BME280;51107;47.652;19.016;2022-07-18T03:53:43;100804.91;;;14.94;58.88
64683;BME280;51107;47.652;19.016;2022-07-18T03:56:32;100812.16;;;15.00;55.04
64683;BME280;51107;47.652;19.016;2022-07-18T03:59:02;100813.56;;;15.13;55.12
64683;BME280;51107;47.652;19.016;2022-07-18T04:01:40;100814.31;;;15.31;54.14
64683;BME280;51107;47.652;19.016;2022-07-18T04:04:10;100820.16;;;15.17;54.26
64683;BME280;51107;47.652;19.016;2022-07-18T04:06:39;100809.13;;;15.13;58.12
64683;BME280;51107;47.652;19.016;2022-07-18T04:09:28;100811.13;;;15.19;56.20
64683;BME280;51107;47.652;19.016;2022-07-18T04:12:17;100826.22;;;15.17;59.44
64683;BME280;51107;47.652;19.016;2022-07-18T04:15:10;100824.69;;;15.41;55.91
64683;BME280;51107;47.652;19.016;2022-07-18T04:17:59;100825.38;;;15.43;53.34
64683;BME280;51107;47.652;19.016;2022-07-18T04:20:32;100828.28;;;15.40;53.81
64683;BME280;51107;47.652;19.016;2022-07-18T04:23:21;100829.38;;;15.55;52.87
64683;BME280;51107;47.652;19.016;2022-07-18T04:25:51;100827.19;;;15.51;53.72
64683;BME280;51107;47.652;19.016;2022-07-18T04:28:19;100832.03;;;15.63;53.32
64683;BME280;51107;47.652;19.016;2022-07-18T04:30:49;100829.63;;;15.78;52.55
64683;BME280;51107;47.652;19.016;2022-07-18T04:33:18;100839.03;;;15.89;52.80
64683;BME280;51107;47.652;19.016;2022-07-18T04:36:06;100839.94;;;16.06;54.77
64683;BME280;51107;47.652;19.016;2022-07-18T04:38:35;100835.19;;;16.26;52.46
64683;BME280;51107;47.652;19.016;2022-07-18T04:41:06;100834.06;;;16.37;51.23
64683;BME280;51107;47.652;19.016;2022-07-18T04:43:36;100838.84;;;16.50;52.15
64683;BME280;51107;47.652;19.016;2022-07-18T04:46:05;100831.97;;;16.57;52.68
64683;BME280;51107;47.652;19.016;2022-07-18T04:48:54;100835.41;;;16.66;52.75
64683;BME280;51107;47.652;19.016;2022-07-18T04:51:25;100833.59;;;16.75;52.57
64683;BME280;51107;47.652;19.016;2022-07-18T04:53:55;100836.25;;;16.91;51.23
64683;BME280;51107;47.652;19.016;2022-07-18T04:56:26;100831.97;;;16.98;51.05
64683;BME280;51107;47.652;19.016;2022-07-18T04:58:56;100831.97;;;17.07;50.56
64683;BME280;51107;47.652;19.016;2022-07-18T05:01:31;100826.00;;;17.21;49.78
64683;BME280;51107;47.652;19.016;2022-07-18T05:04:20;100834.69;;;17.30;50.00
64683;BME280;51107;47.652;19.016;2022-07-18T05:07:11;100830.03;;;17.48;51.29
64683;BME280;51107;47.652;19.016;2022-07-18T05:10:00;100826.69;;;17.63;50.12
64683;BME280;51107;47.652;19.016;2022-07-18T05:12:52;100829.91;;;17.81;49.23
64683;BME280;51107;47.652;19.016;2022-07-18T05:15:42;100832.19;;;17.93;47.73
64683;BME280;51107;47.652;19.016;2022-07-18T05:18:51;100838.44;;;18.23;46.61
64683;BME280;51107;47.652;19.016;2022-07-18T05:21:59;100839.50;;;18.37;47.06
64683;BME280;51107;47.652;19.016;2022-07-18T05:24:49;100837.47;;;18.47;46.38
64683;BME280;51107;47.652;19.016;2022-07-18T05:27:39;100851.22;;;18.58;47.89
64683;BME280;51107;47.652;19.016;2022-07-18T05:30:36;100845.06;;;18.65;47.76
64683;BME280;51107;47.652;19.016;2022-07-18T05:33:25;100852.44;;;18.70;46.44
64683;BME280;51107;47.652;19.016;2022-07-18T05:36:20;100844.75;;;18.83;45.88
64683;BME280;51107;47.652;19.016;2022-07-18T05:39:08;100845.31;;;18.94;46.22
64683;BME280;51107;47.652;19.016;2022-07-18T05:42:01;100842.62;;;19.02;45.37
64683;BME280;51107;47.652;19.016;2022-07-18T05:45:10;100833.50;;;19.05;44.81
64683;BME280;51107;47.652;19.016;2022-07-18T05:48:17;100839.81;;;19.18;44.37
64683;BME280;51107;47.652;19.016;2022-07-18T05:51:09;100835.38;;;19.19;43.87
64683;BME280;51107;47.652;19.016;2022-07-18T05:54:20;100835.44;;;19.41;43.95
64683;BME280;51107;47.652;19.016;2022-07-18T05:57:12;100829.53;;;19.54;44.80
64683;BME280;51107;47.652;19.016;2022-07-18T06:00:08;100837.16;;;19.63;45.00
64683;BME280;51107;47.652;19.016;2022-07-18T06:02:59;100834.25;;;19.73;42.94
64683;BME280;51107;47.652;19.016;2022-07-18T06:05:52;100827.59;;;19.92;42.70
64683;BME280;51107;47.652;19.016;2022-07-18T06:08:52;100830.84;;;19.94;42.06
64683;BME280;51107;47.652;19.016;2022-07-18T06:11:22;100830.53;;;20.04;41.21
64683;BME280;51107;47.652;19.016;2022-07-18T06:14:31;100829.44;;;20.13;40.77
64683;BME280;51107;47.652;19.016;2022-07-18T06:17:20;100839.81;;;20.15;41.77
64683;BME280;51107;47.652;19.016;2022-07-18T06:20:11;100836.56;;;20.34;41.96
64683;BME280;51107;47.652;19.016;2022-07-18T06:23:19;100833.28;;;20.32;40.90
64683;BME280;51107;47.652;19.016;2022-07-18T06:26:32;100840.34;;;20.25;42.34
64683;BME280;51107;47.652;19.016;2022-07-18T06:29:40;100834.41;;;20.45;40.77
64683;BME280;51107;47.652;19.016;2022-07-18T06:33:09;100836.34;;;20.58;40.84
64683;BME280;51107;47.652;19.016;2022-07-18T06:36:02;100828.59;;;20.56;40.99
64683;BME280;51107;47.652;19.016;2022-07-18T06:38:52;100831.47;;;20.76;40.10
64683;BME280;51107;47.652;19.016;2022-07-18T06:42:01;100830.97;;;20.94;40.84
64683;BME280;51107;47.652;19.016;2022-07-18T06:45:11;100832.75;;;20.87;40.53
64683;BME280;51107;47.652;19.016;2022-07-18T06:48:01;100832.69;;;21.09;40.68
64683;BME280;51107;47.652;19.016;2022-07-18T06:51:07;100834.13;;;21.11;41.62
64683;BME280;51107;47.652;19.016;2022-07-18T06:54:16;100827.09;;;21.25;41.63
64683;BME280;51107;47.652;19.016;2022-07-18T06:57:45;100826.59;;;21.50;39.51
64683;BME280;51107;47.652;19.016;2022-07-18T07:00:33;100817.09;;;21.62;40.34
64683;BME280;51107;47.652;19.016;2022-07-18T07:04:02;100818.62;;;21.85;38.47
64683;BME280;51107;47.652;19.016;2022-07-18T07:06:51;100809.47;;;22.08;39.45
64683;BME280;51107;47.652;19.016;2022-07-18T07:09:56;100806.28;;;22.46;38.28
64683;BME280;51107;47.652;19.016;2022-07-18T07:12:25;100814.44;;;22.58;37.04
64683;BME280;51107;47.652;19.016;2022-07-18T07:15:19;100813.00;;;22.95;38.29
64683;BME280;51107;47.652;19.016;2022-07-18T07:18:27;100806.84;;;23.15;37.33
64683;BME280;51107;47.652;19.016;2022-07-18T07:21:48;100802.22;;;23.55;38.05
64683;BME280;51107;47.652;19.016;2022-07-18T07:24:45;100800.19;;;23.96;35.30
64683;BME280;51107;47.652;19.016;2022-07-18T07:27:37;100801.53;;;24.12;36.07
64683;BME280;51107;47.652;19.016;2022-07-18T07:30:27;100800.66;;;24.75;34.39
64683;BME280;51107;47.652;19.016;2022-07-18T07:33:56;100800.81;;;25.55;32.49
64683;BME280;51107;47.652;19.016;2022-07-18T07:36:52;100800.06;;;25.97;31.38
64683;BME280;51107;47.652;19.016;2022-07-18T07:40:02;100793.41;;;26.41;33.57
64683;BME280;51107;47.652;19.016;2022-07-18T07:42:52;100791.53;;;25.88;31.48
64683;BME280;51107;47.652;19.016;2022-07-18T07:46:17;100790.44;;;26.07;31.70
64683;BME280;51107;47.652;19.016;2022-07-18T07:49:26;100781.22;;;26.34;31.08
64683;BME280;51107;47.652;19.016;2022-07-18T07:52:15;100783.88;;;26.22;29.55
64683;BME280;51107;47.652;19.016;2022-07-18T07:55:09;100784.94;;;26.33;32.01
64683;BME280;51107;47.652;19.016;2022-07-18T07:58:03;100780.63;;;26.55;34.78
64683;BME280;51107;47.652;19.016;2022-07-18T08:01:13;100781.00;;;27.35;29.59
64683;BME280;51107;47.652;19.016;2022-07-18T08:04:22;100779.87;;;27.89;27.16
64683;BME280;51107;47.652;19.016;2022-07-18T08:07:08;100782.47;;;27.55;28.59
64683;BME280;51107;47.652;19.016;2022-07-18T08:09:38;100786.56;;;26.57;30.33
64683;BME280;51107;47.652;19.016;2022-07-18T08:12:06;100782.53;;;26.78;27.58
64683;BME280;51107;47.652;19.016;2022-07-18T08:14:34;100783.19;;;26.38;27.87
64683;BME280;51107;47.652;19.016;2022-07-18T08:17:06;100787.97;;;26.48;28.30
64683;BME280;51107;47.652;19.016;2022-07-18T08:19:34;100780.94;;;27.18;29.75
64683;BME280;51107;47.652;19.016;2022-07-18T08:22:02;100778.69;;;27.96;26.18
64683;BME280;51107;47.652;19.016;2022-07-18T08:24:31;100773.50;;;28.07;28.81
64683;BME280;51107;47.652;19.016;2022-07-18T08:26:59;100786.66;;;27.79;25.91
64683;BME280;51107;47.652;19.016;2022-07-18T08:29:28;100782.78;;;27.18;27.14
64683;BME280;51107;47.652;19.016;2022-07-18T08:32:16;100787.22;;;28.27;25.83
64683;BME280;51107;47.652;19.016;2022-07-18T08:34:44;100783.41;;;28.40;25.68
64683;BME280;51107;47.652;19.016;2022-07-18T08:37:13;100781.94;;;27.41;26.25
64683;BME280;51107;47.652;19.016;2022-07-18T08:39:41;100782.59;;;27.19;25.95
64683;BME280;51107;47.652;19.016;2022-07-18T08:42:10;100783.91;;;26.93;27.19
64683;BME280;51107;47.652;19.016;2022-07-18T08:44:39;100780.09;;;26.89;29.21
64683;BME280;51107;47.652;19.016;2022-07-18T08:47:08;100784.47;;;26.95;28.21
64683;BME280;51107;47.652;19.016;2022-07-18T08:49:38;100778.78;;;28.36;25.28
64683;BME280;51107;47.652;19.016;2022-07-18T08:52:06;100777.62;;;28.48;24.59
64683;BME280;51107;47.652;19.016;2022-07-18T08:54:50;100774.25;;;29.37;23.16
64683;BME280;51107;47.652;19.016;2022-07-18T08:57:26;100772.78;;;29.78;24.17
64683;BME280;51107;47.652;19.016;2022-07-18T08:59:57;100782.44;;;30.07;24.50
64683;BME280;51107;47.652;19.016;2022-07-18T09:02:26;100780.00;;;30.38;24.54
64683;BME280;51107;47.652;19.016;2022-07-18T09:04:54;100777.38;;;30.10;23.95
64683;BME280;51107;47.652;19.016;2022-07-18T09:07:43;100779.22;;;30.42;23.28
64683;BME280;51107;47.652;19.016;2022-07-18T09:10:11;100770.44;;;29.33;23.91
64683;BME280;51107;47.652;19.016;2022-07-18T09:12:55;100774.59;;;30.00;25.90
64683;BME280;51107;47.652;19.016;2022-07-18T09:15:30;100770.75;;;29.36;24.59
64683;BME280;51107;47.652;19.016;2022-07-18T09:17:58;100772.59;;;30.18;24.85
64683;BME280;51107;47.652;19.016;2022-07-18T09:21:18;100772.91;;;29.34;23.42
64683;BME280;51107;47.652;19.016;2022-07-18T09:23:50;100769.16;;;29.62;23.02
64683;BME280;51107;47.652;19.016;2022-07-18T09:26:41;100770.88;;;29.46;24.51
64683;BME280;51107;47.652;19.016;2022-07-18T09:29:16;100778.28;;;30.21;22.14
64683;BME280;51107;47.652;19.016;2022-07-18T09:31:55;100769.78;;;30.02;22.45
64683;BME280;51107;47.652;19.016;2022-07-18T09:34:35;100769.78;;;31.51;21.24
64683;BME280;51107;47.652;19.016;2022-07-18T09:37:04;100770.06;;;30.81;23.17
64683;BME280;51107;47.652;19.016;2022-07-18T09:39:33;100758.63;;;31.11;22.31
64683;BME280;51107;47.652;19.016;2022-07-18T09:42:16;100762.84;;;31.96;20.46
64683;BME280;51107;47.652;19.016;2022-07-18T09:45:00;100764.44;;;31.61;21.87
64683;BME280;51107;47.652;19.016;2022-07-18T09:47:29;100766.78;;;32.71;19.21
64683;BME280;51107;47.652;19.016;2022-07-18T09:49:58;100755.41;;;32.90;19.17
64683;BME280;51107;47.652;19.016;2022-07-18T09:52:27;100761.12;;;33.33;19.34
64683;BME280;51107;47.652;19.016;2022-07-18T09:55:04;100756.50;;;32.83;19.32
64683;BME280;51107;47.652;19.016;2022-07-18T09:57:34;100755.03;;;33.12;19.78
64683;BME280;51107;47.652;19.016;2022-07-18T10:00:02;100755.78;;;33.62;18.47
64683;BME280;51107;47.652;19.016;2022-07-18T10:02:39;100760.38;;;34.31;17.33
64683;BME280;51107;47.652;19.016;2022-07-18T10:05:08;100754.91;;;31.28;20.40
64683;BME280;51107;47.652;19.016;2022-07-18T10:07:37;100752.00;;;30.71;21.34
64683;BME280;51107;47.652;19.016;2022-07-18T10:10:06;100751.00;;;30.02;21.41
64683;BME280;51107;47.652;19.016;2022-07-18T10:12:36;100740.06;;;30.52;23.52
64683;BME280;51107;47.652;19.016;2022-07-18T10:15:04;100748.66;;;31.07;22.48
64683;BME280;51107;47.652;19.016;2022-07-18T10:17:33;100743.84;;;30.56;21.06
64683;BME280;51107;47.652;19.016;2022-07-18T10:20:07;100736.91;;;30.22;20.45
64683;BME280;51107;47.652;19.016;2022-07-18T10:22:40;100745.31;;;29.98;21.86
64683;BME280;51107;47.652;19.016;2022-07-18T10:25:12;100733.25;;;29.74;20.40
64683;BME280;51107;47.652;19.016;2022-07-18T10:30:37;100734.41;;;29.51;20.96
64683;BME280;51107;47.652;19.016;2022-07-18T10:36:28;100719.72;;;31.86;19.67
64683;BME280;51107;47.652;19.016;2022-07-18T10:39:17;100715.91;;;32.23;19.91
64683;BME280;51107;47.652;19.016;2022-07-18T10:57:38;100695.94;;;30.05;22.48
64683;BME280;51107;47.652;19.016;2022-07-18T11:02:49;100689.25;;;30.12;20.80
64683;BME280;51107;47.652;19.016;2022-07-18T11:21:23;100670.69;;;29.13;22.38
64683;BME280;51107;47.652;19.016;2022-07-18T11:24:01;100661.88;;;28.69;21.68
64683;BME280;51107;47.652;19.016;2022-07-18T11:26:30;100657.25;;;29.36;21.39
64683;BME280;51107;47.652;19.016;2022-07-18T11:29:02;100658.47;;;29.01;23.83
64683;BME280;51107;47.652;19.016;2022-07-18T11:31:32;100649.09;;;29.58;21.25
64683;BME280;51107;47.652;19.016;2022-07-18T11:34:10;100641.28;;;29.51;21.68
64683;BME280;51107;47.652;19.016;2022-07-18T11:36:41;100645.44;;;29.69;20.94
64683;BME280;51107;47.652;19.016;2022-07-18T11:39:10;100634.47;;;29.43;23.67
64683;BME280;51107;47.652;19.016;2022-07-18T11:41:41;100643.97;;;29.89;21.11
64683;BME280;51107;47.652;19.016;2022-07-18T11:44:17;100635.84;;;28.69;21.65
64683;BME280;51107;47.652;19.016;2022-07-18T11:46:46;100638.19;;;29.10;22.81
64683;BME280;51107;47.652;19.016;2022-07-18T11:49:14;100636.53;;;29.31;22.87
64683;BME280;51107;47.652;19.016;2022-07-18T11:51:44;100633.16;;;29.46;22.53
64683;BME280;51107;47.652;19.016;2022-07-18T11:54:22;100624.66;;;29.54;23.35
64683;BME280;51107;47.652;19.016;2022-07-18T11:56:53;100621.09;;;29.48;21.87
64683;BME280;51107;47.652;19.016;2022-07-18T11:59:22;100626.13;;;29.12;21.81
64683;BME280;51107;47.652;19.016;2022-07-18T12:01:51;100623.59;;;29.01;21.05
64683;BME280;51107;47.652;19.016;2022-07-18T12:04:24;100620.19;;;29.05;26.21
64683;BME280;51107;47.652;19.016;2022-07-18T12:07:23;100619.28;;;28.72;21.56
64683;BME280;51107;47.652;19.016;2022-07-18T12:09:52;100607.16;;;28.92;22.21
64683;BME280;51107;47.652;19.016;2022-07-18T12:12:23;100609.06;;;28.69;21.86
64683;BME280;51107;47.652;19.016;2022-07-18T12:14:56;100604.78;;;28.68;22.40
64683;BME280;51107;47.652;19.016;2022-07-18T12:17:27;100605.97;;;28.83;22.17
64683;BME280;51107;47.652;19.016;2022-07-18T12:23:06;100593.34;;;28.78;23.89
64683;BME280;51107;47.652;19.016;2022-07-18T12:25:44;100604.25;;;28.71;22.13
64683;BME280;51107;47.652;19.016;2022-07-18T12:28:14;100597.34;;;28.31;21.90
64683;BME280;51107;47.652;19.016;2022-07-18T12:30:42;100601.94;;;28.36;22.62
64683;BME280;51107;47.652;19.016;2022-07-18T12:33:11;100601.66;;;28.32;22.17
64683;BME280;51107;47.652;19.016;2022-07-18T12:35:40;100599.41;;;28.24;23.02
64683;BME280;51107;47.652;19.016;2022-07-18T12:38:16;100601.00;;;28.25;22.16
64683;BME280;51107;47.652;19.016;2022-07-18T12:46:01;100596.19;;;27.88;22.02
64683;BME280;51107;47.652;19.016;2022-07-18T12:48:31;100580.44;;;27.91;22.48
64683;BME280;51107;47.652;19.016;2022-07-18T12:51:03;100583.13;;;27.91;21.16
64683;BME280;51107;47.652;19.016;2022-07-18T12:53:34;100576.97;;;27.91;23.41
64683;BME280;51107;47.652;19.016;2022-07-18T12:56:03;100572.34;;;28.03;23.38
64683;BME280;51107;47.652;19.016;2022-07-18T12:58:32;100572.59;;;28.24;22.75
64683;BME280;51107;47.652;19.016;2022-07-18T13:01:00;100574.16;;;28.42;22.39
64683;BME280;51107;47.652;19.016;2022-07-18T13:03:35;100569.28;;;28.17;23.57
64683;BME280;51107;47.652;19.016;2022-07-18T13:06:05;100567.00;;;28.25;22.92
64683;BME280;51107;47.652;19.016;2022-07-18T13:08:33;100565.97;;;28.54;21.99
64683;BME280;51107;47.652;19.016;2022-07-18T13:11:02;100567.41;;;28.61;21.49
64683;BME280;51107;47.652;19.016;2022-07-18T13:13:30;100560.66;;;28.59;21.58
64683;BME280;51107;47.652;19.016;2022-07-18T13:15:58;100560.69;;;28.37;22.56
64683;BME280;51107;47.652;19.016;2022-07-18T13:18:27;100563.22;;;28.48;21.37
64683;BME280;51107;47.652;19.016;2022-07-18T13:20:55;100564.50;;;28.19;22.04
64683;BME280;51107;47.652;19.016;2022-07-18T13:23:23;100557.31;;;28.46;20.73
64683;BME280;51107;47.652;19.016;2022-07-18T13:25:52;100557.00;;;28.43;21.13
64683;BME280;51107;47.652;19.016;2022-07-18T13:28:20;100557.44;;;28.35;20.97
64683;BME280;51107;47.652;19.016;2022-07-18T13:30:48;100554.63;;;28.46;21.06
64683;BME280;51107;47.652;19.016;2022-07-18T13:33:17;100549.91;;;28.32;21.79
64683;BME280;51107;47.652;19.016;2022-07-18T13:35:45;100541.31;;;28.52;22.13
64683;BME280;51107;47.652;19.016;2022-07-18T13:38:13;100550.03;;;28.64;21.10
64683;BME280;51107;47.652;19.016;2022-07-18T13:40:42;100544.69;;;28.64;21.33
64683;BME280;51107;47.652;19.016;2022-07-18T13:43:10;100546.47;;;28.58;21.66
64683;BME280;51107;47.652;19.016;2022-07-18T13:45:39;100542.41;;;28.56;21.28
64683;BME280;51107;47.652;19.016;2022-07-18T13:48:08;100537.69;;;28.41;22.21
64683;BME280;51107;47.652;19.016;2022-07-18T13:50:36;100538.91;;;28.55;21.44
64683;BME280;51107;47.652;19.016;2022-07-18T13:53:05;100534.81;;;28.47;21.89
64683;BME280;51107;47.652;19.016;2022-07-18T13:55:34;100538.22;;;28.92;20.59
64683;BME280;51107;47.652;19.016;2022-07-18T13:58:03;100547.50;;;28.79;20.36
64683;BME280;51107;47.652;19.016;2022-07-18T14:00:34;100531.44;;;28.57;21.14
64683;BME280;51107;47.652;19.016;2022-07-18T14:03:06;100526.91;;;28.85;20.40
64683;BME280;51107;47.652;19.016;2022-07-18T14:05:37;100534.25;;;28.68;21.74
64683;BME280;51107;47.652;19.016;2022-07-18T14:08:06;100535.13;;;28.51;20.67
64683;BME280;51107;47.652;19.016;2022-07-18T14:10:35;100528.44;;;28.54;21.87
64683;BME280;51107;47.652;19.016;2022-07-18T14:13:03;100533.72;;;28.43;22.20
64683;BME280;51107;47.652;19.016;2022-07-18T14:15:32;100528.41;;;28.26;21.71
64683;BME280;51107;47.652;19.016;2022-07-18T14:18:00;100516.56;;;28.22;21.87
64683;BME280;51107;47.652;19.016;2022-07-18T14:20:29;100511.44;;;28.43;22.88
64683;BME280;51107;47.652;19.016;2022-07-18T14:22:57;100523.69;;;28.34;22.71
64683;BME280;51107;47.652;19.016;2022-07-18T14:25:26;100511.41;;;28.38;21.67
64683;BME280;51107;47.652;19.016;2022-07-18T14:27:54;100517.56;;;28.38;24.70
64683;BME280;51107;47.652;19.016;2022-07-18T14:30:22;100509.22;;;28.12;20.86
64683;BME280;51107;47.652;19.016;2022-07-18T14:32:51;100504.75;;;28.18;21.13
64683;BME280;51107;47.652;19.016;2022-07-18T14:35:19;100497.34;;;28.53;21.08
64683;BME280;51107;47.652;19.016;2022-07-18T14:37:48;100506.41;;;28.46;22.77
64683;BME280;51107;47.652;19.016;2022-07-18T14:40:18;100504.06;;;28.28;21.33
64683;BME280;51107;47.652;19.016;2022-07-18T14:42:46;100504.25;;;27.99;21.31
64683;BME280;51107;47.652;19.016;2022-07-18T14:45:14;100489.94;;;28.10;23.24
64683;BME280;51107;47.652;19.016;2022-07-18T14:47:43;100492.69;;;28.16;23.15
64683;BME280;51107;47.652;19.016;2022-07-18T14:50:12;100495.22;;;28.27;24.09